createdAt,value
2022-12-19T00:02:22.559Z,95.37
2022-12-19T00:05:01.379Z,95.22
2022-12-19T00:07:31.861Z,94.97
2022-12-19T00:10:05.740Z,94.73
2022-12-19T00:12:38.280Z,94.63
2022-12-19T00:15:18.934Z,94.85
2022-12-19T00:17:53.315Z,94.22
2022-12-19T00:20:23.669Z,94.60
2022-12-19T00:22:57.123Z,94.41
2022-12-19T00:25:30.905Z,94.56
2022-12-19T00:28:05.381Z,94.73
2022-12-19T00:30:36.461Z,94.94
2022-12-19T00:33:07.038Z,94.40
2022-12-19T00:35:38.445Z,94.44
2022-12-19T00:38:09.270Z,94.99
2022-12-19T00:43:13.456Z,95.68
2022-12-19T00:45:43.860Z,95.70
2022-12-19T00:48:16.020Z,94.98
2022-12-19T00:50:52.191Z,95.42
2022-12-19T00:53:23.192Z,95.63
2022-12-19T00:55:57.049Z,94.80
2022-12-19T00:58:27.306Z,95.40
2022-12-19T01:00:57.890Z,94.92
2022-12-19T01:03:28.492Z,94.96
2022-12-19T01:05:59.239Z,94.76
2022-12-19T01:08:30.370Z,94.89
2022-12-19T01:11:04.808Z,94.78
2022-12-19T01:13:37.670Z,94.66
2022-12-19T01:16:12.906Z,94.68
2022-12-19T01:18:43.554Z,95.33
2022-12-19T01:21:14.246Z,95.40
2022-12-19T01:23:44.182Z,95.27
2022-12-19T01:26:17.365Z,95.17
2022-12-19T01:28:47.489Z,95.24
2022-12-19T01:31:18.071Z,95.38
2022-12-19T01:33:49.233Z,95.43
2022-12-19T01:36:21.937Z,94.76
2022-12-19T01:38:52.556Z,94.85
2022-12-19T01:41:25.530Z,95.07
2022-12-19T01:44:01.395Z,94.54
2022-12-19T01:46:38.571Z,94.54
2022-12-19T01:49:14.192Z,94.37
2022-12-19T01:51:48.642Z,93.84
2022-12-19T01:54:25.516Z,93.85
2022-12-19T01:57:01.477Z,94.75
2022-12-19T01:59:36.015Z,94.24
2022-12-19T02:02:12.383Z,94.83
2022-12-19T02:04:44.494Z,94.00
2022-12-19T02:07:17.011Z,93.87
2022-12-19T02:09:51.161Z,93.47
2022-12-19T02:12:36.616Z,93.56
2022-12-19T02:15:08.982Z,93.33
2022-12-19T02:17:50.184Z,93.25
2022-12-19T02:20:58.464Z,92.91
2022-12-19T02:23:57.680Z,92.94
2022-12-19T02:26:51.111Z,91.98
2022-12-19T02:29:43.278Z,92.47
2022-12-19T02:32:22.851Z,92.02
2022-12-19T02:34:59.863Z,92.15
2022-12-19T02:37:32.980Z,92.09
2022-12-19T02:40:09.523Z,92.27
2022-12-19T02:42:44.673Z,91.84
2022-12-19T02:45:28.635Z,91.02
2022-12-19T02:48:08.613Z,90.61
2022-12-19T02:50:41.642Z,90.64
2022-12-19T02:53:13.396Z,90.65
2022-12-19T02:55:51.514Z,90.52
2022-12-19T02:58:51.756Z,91.29
2022-12-19T03:01:39.459Z,91.55
2022-12-19T03:04:20.271Z,90.94
2022-12-19T03:06:55.848Z,90.56
2022-12-19T03:09:39.402Z,91.64
2022-12-19T03:12:21.627Z,90.97
2022-12-19T03:14:52.635Z,90.68
2022-12-19T03:17:22.933Z,90.40
2022-12-19T03:19:55.675Z,90.62
2022-12-19T03:22:25.926Z,90.77
2022-12-19T03:24:55.838Z,90.94
2022-12-19T03:27:32.413Z,90.98
2022-12-19T03:30:06.387Z,90.39
2022-12-19T03:32:39.258Z,90.01
2022-12-19T03:35:18.480Z,90.14
2022-12-19T03:37:52.722Z,90.17
2022-12-19T03:40:28.343Z,90.67
2022-12-19T03:43:09.657Z,89.76
2022-12-19T03:45:51.155Z,90.19
2022-12-19T03:48:28.678Z,90.97
2022-12-19T03:51:12.047Z,90.38
2022-12-19T03:53:55.892Z,91.13
2022-12-19T03:56:39.068Z,90.61
2022-12-19T03:59:14.007Z,90.04
2022-12-19T04:01:45.113Z,89.86
2022-12-19T04:04:17.000Z,89.88
2022-12-19T04:06:51.414Z,90.15
2022-12-19T04:09:23.597Z,89.85
2022-12-19T04:12:00.513Z,90.42
2022-12-19T04:14:33.627Z,90.70
2022-12-19T04:17:14.475Z,91.05
2022-12-19T04:19:50.687Z,90.23
2022-12-19T04:22:28.586Z,90.88
2022-12-19T04:25:01.977Z,90.67
2022-12-19T04:27:34.281Z,90.04
2022-12-19T04:30:05.789Z,90.64
2022-12-19T04:32:38.781Z,91.15
2022-12-19T04:35:09.440Z,90.72
2022-12-19T04:37:42.307Z,90.55
2022-12-19T04:40:14.242Z,90.50
2022-12-19T04:42:44.284Z,90.58
2022-12-19T04:45:14.714Z,90.62
2022-12-19T04:47:44.635Z,91.03
2022-12-19T04:50:14.903Z,90.90
2022-12-19T04:52:47.441Z,90.77
2022-12-19T04:55:17.962Z,91.04
2022-12-19T04:57:48.105Z,91.15
2022-12-19T05:00:19.440Z,90.96
2022-12-19T05:02:49.893Z,90.67
2022-12-19T05:05:20.779Z,90.50
2022-12-19T05:07:54.082Z,90.93
2022-12-19T05:10:24.888Z,91.09
2022-12-19T05:12:56.903Z,90.80
2022-12-19T05:15:27.725Z,91.09
2022-12-19T05:17:57.925Z,91.37
2022-12-19T05:20:28.765Z,90.63
2022-12-19T05:23:15.242Z,91.01
2022-12-19T05:25:47.249Z,91.29
2022-12-19T05:28:19.158Z,90.93
2022-12-19T05:30:52.477Z,91.44
2022-12-19T05:33:22.948Z,91.55
2022-12-19T05:35:53.303Z,91.66
2022-12-19T05:38:25.898Z,91.76
2022-12-19T05:40:56.318Z,91.81
2022-12-19T05:43:28.157Z,91.16
2022-12-19T05:45:58.431Z,91.86
2022-12-19T05:48:28.551Z,91.74
2022-12-19T05:50:58.911Z,92.17
2022-12-19T05:53:31.567Z,92.62
2022-12-19T05:56:10.022Z,92.42
2022-12-19T05:58:41.791Z,92.78
2022-12-19T06:01:14.886Z,92.61
2022-12-19T06:03:46.978Z,92.92
2022-12-19T06:06:20.053Z,92.78
2022-12-19T06:08:55.841Z,93.06
2022-12-19T06:11:26.667Z,92.73
2022-12-19T06:13:56.772Z,92.85
2022-12-19T06:16:27.323Z,93.31
2022-12-19T06:18:57.469Z,92.83
2022-12-19T06:21:27.948Z,92.74
2022-12-19T06:24:00.413Z,92.54
2022-12-19T06:26:31.691Z,92.32
2022-12-19T06:29:02.488Z,92.62
2022-12-19T06:31:36.363Z,92.63
2022-12-19T06:34:06.555Z,92.75
2022-12-19T06:36:36.866Z,93.24
2022-12-19T06:39:09.393Z,93.01
2022-12-19T06:41:52.077Z,92.43
2022-12-19T06:44:22.056Z,92.05
2022-12-19T06:46:52.601Z,92.65
2022-12-19T06:49:22.796Z,91.35
2022-12-19T06:51:53.112Z,91.52
2022-12-19T06:54:25.730Z,91.43
2022-12-19T06:56:56.034Z,91.83
2022-12-19T06:59:27.467Z,91.71
2022-12-19T07:02:01.177Z,92.51
2022-12-19T07:04:34.099Z,92.01
2022-12-19T07:07:04.430Z,91.44
2022-12-19T07:09:37.551Z,91.49
2022-12-19T07:12:08.382Z,91.84
2022-12-19T07:14:38.308Z,91.45
2022-12-19T07:17:09.006Z,91.10
2022-12-19T07:19:39.140Z,91.57
2022-12-19T07:22:10.365Z,91.46
2022-12-19T07:24:43.430Z,91.19
2022-12-19T07:27:14.153Z,91.12
2022-12-19T07:29:47.099Z,91.26
2022-12-19T07:32:18.093Z,91.28
2022-12-19T07:34:48.322Z,91.15
2022-12-19T07:37:18.921Z,91.52
2022-12-19T07:39:53.044Z,91.41
2022-12-19T07:42:26.028Z,91.43
2022-12-19T07:44:58.346Z,91.21
2022-12-19T07:47:29.937Z,91.36
2022-12-19T07:50:00.213Z,91.38
2022-12-19T07:52:31.185Z,91.46
2022-12-19T07:55:04.000Z,92.04
2022-12-19T07:57:34.518Z,92.05
2022-12-19T08:00:05.210Z,91.31
2022-12-19T08:02:36.138Z,91.71
2022-12-19T08:05:07.189Z,91.01
2022-12-19T08:07:37.773Z,91.18
2022-12-19T08:10:12.579Z,90.33
2022-12-19T08:12:43.172Z,90.58
2022-12-19T08:15:13.790Z,89.74
2022-12-19T08:17:44.480Z,90.37
2022-12-19T08:20:15.027Z,89.74
2022-12-19T08:22:45.334Z,89.62
2022-12-19T08:25:17.940Z,89.23
2022-12-19T08:27:48.253Z,89.32
2022-12-19T08:30:18.909Z,88.84
2022-12-19T08:32:49.283Z,89.13
2022-12-19T08:35:19.444Z,88.82
2022-12-19T08:37:49.675Z,88.58
2022-12-19T08:40:23.320Z,88.44
2022-12-19T08:42:53.746Z,88.49
2022-12-19T08:45:23.669Z,88.61
2022-12-19T08:47:53.922Z,88.57
2022-12-19T08:50:23.864Z,88.02
2022-12-19T08:52:54.133Z,88.46
2022-12-19T08:55:27.689Z,89.17
2022-12-19T08:57:59.578Z,89.44
2022-12-19T09:00:31.748Z,89.37
2022-12-19T09:03:01.924Z,88.75
2022-12-19T09:05:59.416Z,88.71
2022-12-19T09:08:22.273Z,88.14
2022-12-19T09:11:00.946Z,87.79
2022-12-19T09:13:32.371Z,88.43
2022-12-19T09:16:04.464Z,88.67
2022-12-19T09:18:35.278Z,88.11
2022-12-19T09:21:07.815Z,88.57
2022-12-19T09:23:38.868Z,88.28
2022-12-19T09:26:13.289Z,87.75
2022-12-19T09:28:44.207Z,88.32
2022-12-19T09:31:17.141Z,87.09
2022-12-19T09:33:47.784Z,87.44
2022-12-19T09:36:21.130Z,87.34
2022-12-19T09:38:51.258Z,86.98
2022-12-19T09:41:53.974Z,86.50
2022-12-19T09:44:41.071Z,87.12
2022-12-19T09:47:16.493Z,86.24
2022-12-19T09:49:48.239Z,86.21
2022-12-19T09:52:21.824Z,85.50
2022-12-19T09:54:58.856Z,85.88
2022-12-19T09:57:42.386Z,84.95
2022-12-19T10:00:19.104Z,85.08
2022-12-19T10:02:53.458Z,84.15
2022-12-19T10:06:49.275Z,82.74
2022-12-19T10:08:25.041Z,83.34
2022-12-19T10:12:38.218Z,82.90
2022-12-19T10:14:27.092Z,82.61
2022-12-19T10:17:28.090Z,82.53
2022-12-19T10:20:16.488Z,81.60
2022-12-19T10:22:58.115Z,82.18
2022-12-19T10:25:43.471Z,81.64
2022-12-19T10:28:29.234Z,80.99
2022-12-19T10:31:19.059Z,80.77
2022-12-19T10:33:58.745Z,79.66
2022-12-19T10:37:03.977Z,80.47
2022-12-19T10:39:31.640Z,79.90
2022-12-19T10:42:12.331Z,80.07
2022-12-19T10:44:45.646Z,79.43
2022-12-19T10:47:20.130Z,78.76
2022-12-19T10:49:50.081Z,78.49
2022-12-19T10:52:52.293Z,78.63
2022-12-19T10:55:32.722Z,78.97
2022-12-19T10:58:10.622Z,79.05
2022-12-19T11:00:42.737Z,78.46
2022-12-19T11:03:19.942Z,78.47
2022-12-19T11:05:57.678Z,78.54
2022-12-19T11:08:31.406Z,79.07
2022-12-19T11:14:50.084Z,78.89
2022-12-19T11:19:48.966Z,79.00
2022-12-19T11:27:03.940Z,78.88
2022-12-19T11:29:34.559Z,79.70
2022-12-19T11:29:35.182Z,78.86
2022-12-19T11:30:42.996Z,79.36
2022-12-19T11:32:40.193Z,80.84
2022-12-19T11:35:20.651Z,82.73
2022-12-19T11:38:00.821Z,83.10
2022-12-19T11:40:44.663Z,83.26
2022-12-19T11:43:45.437Z,83.13
2022-12-19T11:46:22.257Z,85.15
2022-12-19T11:48:56.625Z,86.11
2022-12-19T11:51:35.160Z,87.49
2022-12-19T11:54:18.241Z,88.07
2022-12-19T11:56:50.418Z,89.08
2022-12-19T11:59:26.461Z,89.99
2022-12-19T12:02:09.906Z,91.45
2022-12-19T12:05:07.862Z,92.14
2022-12-19T12:08:57.109Z,93.71
2022-12-19T12:16:17.710Z,94.69
2022-12-19T12:23:53.831Z,96.24
2022-12-19T12:24:15.044Z,94.58
2022-12-19T12:31:20.197Z,97.23
2022-12-19T12:31:40.237Z,99.22
2022-12-19T12:31:50.447Z,100.00
2022-12-19T12:35:07.037Z,100.00
2022-12-19T12:35:56.637Z,100.00
2022-12-19T12:37:05.197Z,100.00
2022-12-19T12:38:26.449Z,100.00
2022-12-19T12:41:18.018Z,100.00
2022-12-19T12:47:25.672Z,100.00
2022-12-19T12:49:59.578Z,100.00
2022-12-19T12:52:37.077Z,100.00
2022-12-19T12:55:17.497Z,100.00
2022-12-19T12:57:52.462Z,100.00
2022-12-19T13:00:26.234Z,100.00
2022-12-19T13:03:08.899Z,100.00
2022-12-19T13:05:43.931Z,100.00
2022-12-19T13:08:30.173Z,100.00
2022-12-19T13:11:03.340Z,100.00
2022-12-19T13:13:58.235Z,100.00
2022-12-19T13:16:51.342Z,100.00
2022-12-19T13:19:28.048Z,100.00
2022-12-19T13:22:23.723Z,100.00
2022-12-19T13:24:55.461Z,100.00
2022-12-19T13:27:41.933Z,100.00
2022-12-19T13:30:22.853Z,100.00
2022-12-19T13:33:10.204Z,100.00
2022-12-19T13:39:46.283Z,100.00
2022-12-19T13:40:00.502Z,100.00
2022-12-19T13:41:44.948Z,100.00
2022-12-19T13:44:15.569Z,100.00
2022-12-19T13:46:48.811Z,100.00
2022-12-19T13:49:27.547Z,100.00
2022-12-19T13:52:00.894Z,100.00
2022-12-19T13:54:34.708Z,100.00
2022-12-19T13:57:09.682Z,100.00
2022-12-19T13:59:59.472Z,100.00
2022-12-19T14:02:45.278Z,100.00
2022-12-19T14:05:34.093Z,100.00
2022-12-19T14:08:24.536Z,100.00
2022-12-19T14:11:32.894Z,100.00
2022-12-19T14:14:10.717Z,100.00
2022-12-19T14:16:45.049Z,100.00
2022-12-19T14:19:30.963Z,100.00
2022-12-19T14:22:20.805Z,100.00
2022-12-19T14:25:32.107Z,100.00
2022-12-19T14:28:19.305Z,100.00
2022-12-19T14:30:49.543Z,100.00
2022-12-19T14:33:45.212Z,100.00
2022-12-19T14:36:23.599Z,100.00
2022-12-19T14:39:27.456Z,100.00
2022-12-19T14:42:03.572Z,100.00
2022-12-19T14:51:25.178Z,100.00
2022-12-19T14:53:08.459Z,100.00
2022-12-19T14:54:21.709Z,100.00
2022-12-19T14:54:26.071Z,100.00
2022-12-19T14:59:32.918Z,100.00
2022-12-19T15:02:28.087Z,100.00
2022-12-19T15:05:05.800Z,100.00
2022-12-19T15:07:37.207Z,100.00
2022-12-19T15:11:05.181Z,100.00
2022-12-19T15:14:47.514Z,100.00
2022-12-19T15:16:12.185Z,100.00
2022-12-19T15:18:44.463Z,100.00
2022-12-19T15:21:16.772Z,100.00
2022-12-19T15:23:47.681Z,100.00
2022-12-19T15:26:22.408Z,100.00
2022-12-19T15:28:55.688Z,100.00
2022-12-19T15:31:32.997Z,100.00
2022-12-19T15:34:33.691Z,100.00
2022-12-19T15:36:55.795Z,100.00
2022-12-19T15:39:29.746Z,100.00
2022-12-19T15:42:05.695Z,100.00
2022-12-19T15:44:39.573Z,100.00
2022-12-19T15:47:18.830Z,100.00
2022-12-19T15:49:49.409Z,100.00
2022-12-19T15:52:20.746Z,100.00
2022-12-19T15:54:51.733Z,100.00
2022-12-19T15:57:31.867Z,100.00
2022-12-19T16:00:04.769Z,100.00
2022-12-19T16:05:29.367Z,100.00
2022-12-19T16:08:00.260Z,100.00
2022-12-19T16:10:38.085Z,100.00
2022-12-19T16:13:21.049Z,100.00
2022-12-19T16:15:52.027Z,100.00
2022-12-19T16:18:22.266Z,100.00
2022-12-19T16:20:53.409Z,100.00
2022-12-19T16:23:25.447Z,100.00
2022-12-19T16:25:56.002Z,100.00
2022-12-19T16:28:31.854Z,100.00
2022-12-19T16:31:03.476Z,100.00
2022-12-19T16:33:34.087Z,100.00
2022-12-19T16:36:06.099Z,100.00
2022-12-19T16:38:36.423Z,100.00
2022-12-19T16:41:06.823Z,100.00
2022-12-19T16:43:41.265Z,100.00
2022-12-19T16:46:18.522Z,100.00
2022-12-19T16:48:49.155Z,100.00
2022-12-19T16:51:21.852Z,100.00
2022-12-19T16:53:52.770Z,100.00
2022-12-19T16:56:33.151Z,100.00
2022-12-19T16:59:08.723Z,100.00
2022-12-19T17:01:39.314Z,100.00
2022-12-19T17:04:09.381Z,100.00
2022-12-19T17:06:42.532Z,100.00
2022-12-19T17:09:17.253Z,100.00
2022-12-19T17:11:50.673Z,100.00
2022-12-19T17:14:27.573Z,100.00
2022-12-19T17:16:58.671Z,100.00
2022-12-19T17:19:34.916Z,100.00
2022-12-19T17:22:05.749Z,100.00
2022-12-19T17:24:35.782Z,100.00
2022-12-19T17:27:06.168Z,100.00
2022-12-19T17:29:39.349Z,100.00
2022-12-19T17:32:11.117Z,100.00
2022-12-19T17:34:41.484Z,100.00
2022-12-19T17:37:20.693Z,100.00
2022-12-19T17:39:51.166Z,100.00
2022-12-19T17:42:24.516Z,100.00
2022-12-19T17:44:57.360Z,100.00
2022-12-19T17:47:28.781Z,100.00
2022-12-19T17:49:59.059Z,100.00
2022-12-19T17:52:29.571Z,100.00
2022-12-19T17:54:59.575Z,100.00
2022-12-19T17:57:29.855Z,100.00
2022-12-19T18:00:02.371Z,100.00
2022-12-19T18:02:34.921Z,100.00
2022-12-19T18:05:05.521Z,100.00
2022-12-19T18:07:39.401Z,100.00
2022-12-19T18:10:17.085Z,100.00
2022-12-19T18:12:47.610Z,100.00
2022-12-19T18:15:21.570Z,100.00
2022-12-19T18:17:54.109Z,100.00
2022-12-19T18:20:32.040Z,100.00
2022-12-19T18:23:03.844Z,100.00
2022-12-19T18:25:35.826Z,100.00
2022-12-19T18:28:06.106Z,100.00
2022-12-19T18:30:39.572Z,100.00
2022-12-19T18:33:10.766Z,100.00
2022-12-19T18:35:47.462Z,100.00
2022-12-19T18:38:20.215Z,100.00
2022-12-19T18:40:51.924Z,100.00
2022-12-19T18:43:22.634Z,100.00
2022-12-19T18:45:55.879Z,100.00
2022-12-19T18:48:29.032Z,100.00
2022-12-19T18:51:00.750Z,100.00
2022-12-19T18:53:35.110Z,100.00
2022-12-19T18:56:07.205Z,100.00
2022-12-19T18:58:37.883Z,100.00
2022-12-19T19:01:16.397Z,100.00
2022-12-19T19:03:56.638Z,100.00
2022-12-19T19:06:28.422Z,100.00
2022-12-19T19:09:00.237Z,100.00
2022-12-19T19:11:30.248Z,100.00
2022-12-19T19:14:00.702Z,100.00
2022-12-19T19:16:33.313Z,100.00
2022-12-19T19:19:03.790Z,100.00
2022-12-19T19:21:36.967Z,100.00
2022-12-19T19:24:11.663Z,100.00
2022-12-19T19:26:41.656Z,100.00
2022-12-19T19:29:19.974Z,100.00
2022-12-19T19:31:54.628Z,100.00
2022-12-19T19:34:29.692Z,100.00
2022-12-19T19:37:05.947Z,100.00
2022-12-19T19:39:37.482Z,100.00
2022-12-19T19:42:07.977Z,100.00
2022-12-19T19:44:38.653Z,100.00
2022-12-19T19:47:11.542Z,100.00
2022-12-19T19:49:42.244Z,100.00
2022-12-19T19:52:12.518Z,100.00
2022-12-19T19:54:45.949Z,100.00
2022-12-19T19:57:16.837Z,100.00
2022-12-19T19:59:47.577Z,100.00
2022-12-19T20:02:23.231Z,100.00
2022-12-19T20:04:53.711Z,100.00
2022-12-19T20:07:24.249Z,100.00
2022-12-19T20:09:54.610Z,100.00
2022-12-19T20:12:24.607Z,100.00
2022-12-19T20:14:54.909Z,100.00
2022-12-19T20:17:27.988Z,100.00
2022-12-19T20:19:58.354Z,100.00
2022-12-19T20:22:28.423Z,100.00
2022-12-19T20:24:58.722Z,100.00
2022-12-19T20:27:28.635Z,100.00
2022-12-19T20:29:59.462Z,100.00
2022-12-19T20:32:34.595Z,100.00
2022-12-19T20:35:10.639Z,100.00
2022-12-19T20:37:43.591Z,100.00
2022-12-19T20:40:14.664Z,100.00
2022-12-19T20:42:46.204Z,100.00
2022-12-19T20:45:16.475Z,100.00
2022-12-19T20:47:49.209Z,100.00
2022-12-19T20:50:19.614Z,100.00
2022-12-19T20:52:49.577Z,100.00
2022-12-19T20:55:20.206Z,100.00
2022-12-19T20:57:50.362Z,100.00
2022-12-19T21:00:22.430Z,100.00
2022-12-19T21:05:46.410Z,100.00
2022-12-19T21:08:16.356Z,100.00
2022-12-19T21:10:49.360Z,100.00
2022-12-19T21:13:19.913Z,100.00
2022-12-19T21:15:57.491Z,100.00
2022-12-19T21:18:32.738Z,100.00
2022-12-19T21:21:03.005Z,100.00
2022-12-19T21:23:33.271Z,100.00
2022-12-19T21:26:11.858Z,100.00
2022-12-19T21:28:48.422Z,100.00
2022-12-19T21:31:25.244Z,100.00
2022-12-19T21:34:00.677Z,100.00
2022-12-19T21:36:32.960Z,100.00
2022-12-19T21:39:04.651Z,100.00
2022-12-19T21:41:35.565Z,100.00
2022-12-19T21:44:05.680Z,100.00
2022-12-19T21:46:37.472Z,100.00
2022-12-19T21:49:10.847Z,100.00
2022-12-19T21:51:41.208Z,100.00
2022-12-19T21:54:12.660Z,100.00
2022-12-19T21:56:43.657Z,100.00
2022-12-19T21:59:40.827Z,100.00
2022-12-19T22:02:34.175Z,100.00
2022-12-19T22:05:08.552Z,100.00
2022-12-19T22:07:39.215Z,100.00
2022-12-19T22:10:11.468Z,100.00
2022-12-19T22:12:42.053Z,100.00
2022-12-19T22:15:15.767Z,100.00
2022-12-19T22:17:46.464Z,100.00
2022-12-19T22:20:19.362Z,100.00
2022-12-19T22:22:50.063Z,100.00
2022-12-19T22:25:20.286Z,100.00
2022-12-19T22:27:50.855Z,100.00
2022-12-19T22:30:21.256Z,100.00
2022-12-19T22:32:51.867Z,100.00
2022-12-19T22:35:25.897Z,100.00
2022-12-19T22:37:57.700Z,100.00
2022-12-19T22:40:28.066Z,100.00
2022-12-19T22:42:58.611Z,100.00
2022-12-19T22:45:28.910Z,100.00
2022-12-19T22:47:59.735Z,100.00
2022-12-19T22:50:32.542Z,100.00
2022-12-19T22:53:04.391Z,100.00
2022-12-19T22:55:36.830Z,100.00
2022-12-19T22:58:08.342Z,100.00
2022-12-19T23:00:38.697Z,100.00
2022-12-19T23:03:09.108Z,100.00
2022-12-19T23:05:45.583Z,100.00
2022-12-19T23:08:18.801Z,100.00
2022-12-19T23:10:52.978Z,100.00
2022-12-19T23:13:23.386Z,100.00
2022-12-19T23:15:54.357Z,100.00
2022-12-19T23:18:24.668Z,100.00
2022-12-19T23:21:09.424Z,100.00
2022-12-19T23:23:42.536Z,100.00
2022-12-19T23:26:16.399Z,100.00
2022-12-19T23:28:52.799Z,100.00
2022-12-19T23:31:23.025Z,100.00
2022-12-19T23:33:54.129Z,100.00
2022-12-19T23:37:08.253Z,100.00
2022-12-19T23:39:17.597Z,100.00
2022-12-19T23:41:47.616Z,100.00
2022-12-19T23:44:18.297Z,100.00
2022-12-19T23:46:48.318Z,100.00
2022-12-19T23:49:18.775Z,100.00
2022-12-19T23:51:51.432Z,100.00
2022-12-19T23:54:21.739Z,100.00
2022-12-19T23:56:53.409Z,100.00
2022-12-19T23:59:23.792Z,100.00
